createdAt,value
2023-03-06T00:01:35.531Z,14.03
2023-03-06T00:04:37.466Z,13.27
2023-03-06T00:07:39.538Z,11.50
2023-03-06T00:10:41.485Z,11.37
2023-03-06T00:13:43.342Z,10.15
2023-03-06T00:16:45.219Z,8.82
2023-03-06T00:19:47.251Z,9.50
2023-03-06T00:22:49.717Z,10.00
2023-03-06T00:25:51.952Z,9.95
2023-03-06T00:28:53.858Z,9.40
2023-03-06T00:31:55.873Z,9.35
2023-03-06T00:34:57.879Z,8.48
2023-03-06T00:37:59.950Z,9.85
2023-03-06T00:41:10.463Z,11.77
2023-03-06T00:44:12.387Z,13.00
2023-03-06T00:47:17.376Z,12.52
2023-03-06T00:50:19.358Z,9.10
2023-03-06T00:53:21.305Z,8.32
2023-03-06T00:56:24.138Z,6.28
2023-03-06T00:59:27.695Z,8.30
2023-03-06T01:02:29.641Z,5.80
2023-03-06T01:05:34.795Z,7.22
2023-03-06T01:08:40.689Z,8.25
2023-03-06T01:11:42.627Z,8.02
2023-03-06T01:14:48.156Z,6.50
2023-03-06T01:17:57.177Z,9.77
2023-03-06T01:21:01.459Z,6.75
2023-03-06T01:24:06.614Z,5.63
2023-03-06T01:27:08.573Z,6.82
2023-03-06T01:30:11.628Z,8.10
2023-03-06T01:33:14.766Z,6.97
2023-03-06T01:36:19.077Z,6.35
2023-03-06T01:39:21.016Z,6.63
2023-03-06T01:42:23.006Z,5.73
2023-03-06T01:45:24.865Z,6.25
2023-03-06T01:48:26.898Z,7.75
2023-03-06T01:51:37.780Z,7.33
2023-03-06T01:54:46.749Z,8.80
2023-03-06T01:57:53.324Z,8.40
2023-03-06T02:00:55.363Z,8.75
2023-03-06T02:04:01.577Z,7.57
2023-03-06T02:07:05.001Z,10.27
2023-03-06T02:10:10.215Z,8.52
2023-03-06T02:13:12.146Z,7.75
2023-03-06T02:16:14.833Z,7.35
2023-03-06T02:19:43.412Z,8.57
2023-03-06T02:23:03.968Z,7.93
2023-03-06T02:26:08.539Z,7.47
2023-03-06T02:29:10.892Z,7.07
2023-03-06T02:32:12.930Z,7.05
2023-03-06T02:35:38.671Z,7.13
2023-03-06T02:38:48.560Z,6.60
2023-03-06T02:41:51.080Z,7.53
2023-03-06T02:44:57.267Z,7.47
2023-03-06T02:48:00.499Z,8.77
2023-03-06T02:51:03.771Z,8.60
2023-03-06T02:54:07.374Z,9.23
2023-03-06T02:57:09.351Z,7.22
2023-03-06T03:00:12.293Z,6.93
2023-03-06T03:03:17.019Z,5.82
2023-03-06T03:06:18.886Z,6.80
2023-03-06T03:09:21.561Z,7.90
2023-03-06T03:12:23.758Z,7.70
2023-03-06T03:15:26.295Z,6.63
2023-03-06T03:18:29.069Z,5.50
2023-03-06T03:21:31.205Z,6.13
2023-03-06T03:24:33.697Z,6.07
2023-03-06T03:27:35.965Z,6.38
2023-03-06T03:30:41.108Z,6.90
2023-03-06T03:33:44.207Z,6.82
2023-03-06T03:36:49.838Z,8.50
2023-03-06T03:39:52.018Z,6.32
2023-03-06T03:42:54.057Z,5.93
2023-03-06T03:45:55.877Z,9.65
2023-03-06T03:49:01.986Z,9.68
2023-03-06T03:52:04.300Z,7.45
2023-03-06T03:55:09.354Z,8.27
2023-03-06T03:58:13.595Z,10.80
2023-03-06T04:01:15.974Z,12.88
2023-03-06T04:04:21.258Z,15.00
2023-03-06T04:10:25.766Z,9.73
2023-03-06T04:13:30.129Z,9.45
2023-03-06T04:16:37.072Z,9.02
2023-03-06T04:19:39.156Z,9.00
2023-03-06T04:22:42.296Z,8.97
2023-03-06T04:25:46.034Z,9.63
2023-03-06T04:28:48.546Z,8.10
2023-03-06T04:31:50.971Z,9.48
2023-03-06T04:34:52.850Z,10.20
2023-03-06T04:37:55.532Z,17.88
2023-03-06T04:40:58.987Z,18.13
2023-03-06T04:44:01.123Z,10.60
2023-03-06T04:47:03.186Z,10.60
2023-03-06T04:50:05.936Z,8.03
2023-03-06T04:53:08.787Z,11.68
2023-03-06T04:56:10.763Z,8.70
2023-03-06T04:59:12.672Z,12.27
2023-03-06T05:02:14.566Z,10.63
2023-03-06T05:05:18.865Z,11.70
2023-03-06T05:08:20.966Z,20.02
2023-03-06T05:11:22.910Z,13.73
2023-03-06T05:14:24.862Z,11.23
2023-03-06T05:17:26.829Z,8.55
2023-03-06T05:20:30.929Z,8.48
2023-03-06T05:23:35.496Z,8.80
2023-03-06T05:26:37.410Z,8.85
2023-03-06T05:29:41.984Z,9.80
2023-03-06T05:32:47.186Z,9.10
2023-03-06T05:35:51.569Z,13.48
2023-03-06T05:38:53.549Z,8.93
2023-03-06T05:41:55.487Z,8.40
2023-03-06T05:44:57.311Z,10.77
2023-03-06T05:47:59.179Z,10.48
2023-03-06T05:51:02.397Z,8.07
2023-03-06T05:54:04.329Z,7.82
2023-03-06T05:57:06.426Z,10.13
2023-03-06T06:00:09.289Z,10.23
2023-03-06T06:03:20.565Z,9.57
2023-03-06T06:06:22.378Z,12.63
2023-03-06T06:09:25.503Z,9.68
2023-03-06T06:12:27.862Z,9.90
2023-03-06T06:15:33.007Z,10.02
2023-03-06T06:18:35.030Z,9.90
2023-03-06T06:21:40.349Z,9.30
2023-03-06T06:27:44.326Z,8.57
2023-03-06T06:30:46.229Z,10.13
2023-03-06T06:33:48.248Z,9.93
2023-03-06T06:36:53.425Z,9.65
2023-03-06T06:39:55.665Z,9.93
2023-03-06T06:42:57.519Z,11.95
2023-03-06T06:46:16.455Z,11.30
2023-03-06T06:49:21.389Z,10.60
2023-03-06T06:52:24.756Z,8.82
2023-03-06T06:55:27.212Z,9.57
2023-03-06T06:58:29.052Z,10.02
2023-03-06T07:01:31.063Z,10.55
2023-03-06T07:04:33.212Z,9.93
2023-03-06T07:07:40.572Z,15.02
2023-03-06T07:10:42.492Z,10.40
2023-03-06T07:13:47.060Z,10.07
2023-03-06T07:16:49.028Z,10.88
2023-03-06T07:19:53.417Z,12.10
2023-03-06T07:22:56.591Z,8.55
2023-03-06T07:25:58.582Z,10.65
2023-03-06T07:29:00.568Z,10.27
2023-03-06T07:32:05.143Z,11.15
2023-03-06T07:35:19.661Z,8.70
2023-03-06T07:38:22.310Z,11.15
2023-03-06T07:41:24.167Z,12.68
2023-03-06T07:44:27.831Z,8.40
2023-03-06T07:47:29.746Z,7.55
2023-03-06T07:50:32.952Z,10.98
2023-03-06T07:53:35.500Z,8.73
2023-03-06T07:56:37.422Z,10.38
2023-03-06T07:59:39.365Z,6.50
2023-03-06T08:03:41.967Z,7.53
2023-03-06T08:06:43.820Z,6.72
2023-03-06T08:09:48.184Z,7.80
2023-03-06T08:12:50.029Z,7.93
2023-03-06T08:15:51.910Z,8.30
2023-03-06T08:18:54.076Z,8.77
2023-03-06T08:21:56.032Z,9.93
2023-03-06T08:24:57.911Z,8.13
2023-03-06T08:28:00.869Z,8.05
2023-03-06T08:34:20.084Z,7.97
2023-03-06T08:37:24.111Z,5.88
2023-03-06T08:40:30.454Z,5.88
2023-03-06T08:43:32.368Z,6.38
2023-03-06T08:46:35.807Z,8.05
2023-03-06T08:49:39.717Z,7.18
2023-03-06T08:52:41.596Z,6.85
2023-03-06T08:55:43.603Z,5.88
2023-03-06T08:58:46.061Z,7.10
2023-03-06T09:01:48.050Z,9.18
2023-03-06T09:04:50.059Z,8.68
2023-03-06T09:07:52.110Z,7.68
2023-03-06T09:10:55.107Z,9.00
2023-03-06T09:17:01.765Z,11.40
2023-03-06T09:20:06.098Z,9.52
2023-03-06T09:23:12.201Z,9.68
2023-03-06T09:26:14.403Z,10.55
2023-03-06T09:29:17.212Z,8.45
2023-03-06T09:32:19.382Z,10.13
2023-03-06T09:35:21.396Z,6.33
2023-03-06T09:38:27.837Z,10.43
2023-03-06T09:41:33.162Z,9.07
2023-03-06T09:44:38.687Z,9.57
2023-03-06T09:48:02.124Z,8.82
2023-03-06T09:54:16.432Z,8.93
2023-03-06T09:57:31.999Z,7.88
2023-03-06T10:00:46.792Z,7.32
2023-03-06T10:04:03.710Z,8.27
2023-03-06T10:07:15.739Z,10.43
2023-03-06T10:10:42.808Z,11.60
2023-03-06T10:13:51.964Z,7.97
2023-03-06T10:16:54.712Z,7.95
2023-03-06T10:19:59.045Z,8.10
2023-03-06T10:23:23.695Z,9.63
2023-03-06T10:26:36.376Z,8.15
2023-03-06T10:30:06.876Z,8.77
2023-03-06T10:33:12.592Z,9.20
2023-03-06T10:36:19.372Z,9.48
2023-03-06T10:39:22.988Z,13.80
2023-03-06T10:42:25.069Z,10.57
2023-03-06T10:45:35.205Z,9.07
2023-03-06T10:48:42.877Z,9.32
2023-03-06T10:52:03.239Z,9.07
2023-03-06T10:55:26.011Z,9.95
2023-03-06T10:58:30.662Z,11.27
2023-03-06T11:01:32.849Z,8.30
2023-03-06T11:04:36.610Z,12.90
2023-03-06T11:07:54.254Z,10.15
2023-03-06T11:11:09.264Z,10.00
2023-03-06T11:14:22.965Z,11.57
2023-03-06T11:17:32.176Z,10.60
2023-03-06T11:20:52.622Z,12.15
2023-03-06T11:23:58.963Z,10.45
2023-03-06T11:27:09.361Z,12.02
2023-03-06T11:30:27.041Z,13.05
2023-03-06T11:33:46.515Z,13.73
2023-03-06T11:36:56.576Z,15.10
2023-03-06T11:40:10.632Z,14.30
2023-03-06T11:43:31.871Z,15.18
2023-03-06T11:46:48.771Z,15.93
2023-03-06T11:50:20.471Z,14.63
2023-03-06T11:53:44.402Z,15.98
2023-03-06T11:56:59.962Z,13.93
2023-03-06T12:00:05.084Z,13.07
2023-03-06T12:03:25.988Z,15.63
2023-03-06T12:06:51.627Z,16.00
2023-03-06T12:10:32.770Z,12.93
2023-03-06T12:14:10.262Z,12.80
2023-03-06T12:17:23.966Z,14.73
2023-03-06T12:20:40.175Z,14.88
2023-03-06T12:24:16.237Z,15.02
2023-03-06T12:31:06.010Z,22.05
2023-03-06T12:34:18.747Z,14.73
2023-03-06T12:37:31.062Z,13.10
2023-03-06T12:40:51.682Z,10.80
2023-03-06T12:43:59.394Z,15.05
2023-03-06T12:47:10.420Z,15.48
2023-03-06T12:50:23.573Z,12.68
2023-03-06T12:53:28.062Z,13.25
2023-03-06T12:56:34.119Z,13.23
2023-03-06T12:59:39.309Z,17.27
2023-03-06T13:03:06.649Z,17.38
2023-03-06T13:06:25.581Z,19.38
2023-03-06T13:09:56.842Z,13.40
2023-03-06T13:13:05.156Z,17.20
2023-03-06T13:16:21.569Z,16.83
2023-03-06T13:19:27.648Z,30.27
2023-03-06T13:22:30.045Z,58.67
2023-03-06T13:25:32.747Z,29.75
2023-03-06T13:28:53.288Z,14.80
2023-03-06T13:32:06.179Z,34.47
2023-03-06T13:35:32.257Z,21.27
2023-03-06T13:38:53.160Z,14.70
2023-03-06T13:42:03.373Z,15.75
2023-03-06T13:45:15.685Z,23.42
2023-03-06T13:48:47.672Z,24.60
2023-03-06T13:52:19.520Z,16.15
2023-03-06T13:55:50.530Z,14.55
2023-03-06T13:59:14.329Z,17.50
2023-03-06T14:02:37.399Z,21.23
2023-03-06T14:05:48.729Z,16.77
2023-03-06T14:08:51.248Z,19.60
2023-03-06T14:12:02.424Z,13.27
2023-03-06T14:15:16.417Z,14.70
2023-03-06T14:18:40.009Z,13.13
2023-03-06T14:21:51.228Z,11.55
2023-03-06T14:25:00.760Z,12.82
2023-03-06T14:28:13.545Z,18.23
2023-03-06T14:31:21.318Z,18.98
2023-03-06T14:34:25.206Z,21.05
2023-03-06T14:37:29.125Z,22.90
2023-03-06T14:40:44.071Z,15.63
2023-03-06T14:43:46.165Z,16.10
2023-03-06T14:46:50.816Z,18.33
2023-03-06T14:50:30.394Z,16.58
2023-03-06T14:53:34.251Z,13.93
2023-03-06T14:56:42.085Z,16.75
2023-03-06T14:59:58.746Z,24.77
2023-03-06T15:03:01.347Z,20.00
2023-03-06T15:06:08.892Z,14.02
2023-03-06T15:09:25.547Z,12.88
2023-03-06T15:12:27.358Z,11.95
2023-03-06T15:15:32.662Z,13.48
2023-03-06T15:18:39.040Z,13.68
2023-03-06T15:21:41.057Z,14.55
2023-03-06T15:24:43.004Z,14.05
2023-03-06T15:27:56.914Z,15.50
2023-03-06T15:31:23.522Z,14.55
2023-03-06T15:34:25.692Z,15.93
2023-03-06T15:37:28.967Z,17.63
2023-03-06T15:40:31.981Z,14.40
2023-03-06T15:46:44.358Z,14.88
2023-03-06T15:49:46.461Z,10.70
2023-03-06T15:52:49.518Z,13.27
2023-03-06T15:58:56.400Z,13.23
2023-03-06T16:02:02.600Z,14.82
2023-03-06T16:05:17.661Z,17.80
2023-03-06T16:08:19.839Z,14.15
2023-03-06T16:11:41.920Z,17.73
2023-03-06T16:14:49.071Z,13.55
2023-03-06T16:17:56.146Z,12.93
2023-03-06T16:20:59.112Z,13.63
2023-03-06T16:27:03.188Z,12.25
2023-03-06T16:30:05.591Z,14.27
2023-03-06T16:33:10.655Z,13.38
2023-03-06T16:36:14.831Z,12.18
2023-03-06T16:39:22.344Z,12.60
2023-03-06T16:42:24.253Z,16.38
2023-03-06T16:45:26.616Z,16.00
2023-03-06T16:48:28.514Z,15.75
2023-03-06T16:51:33.373Z,16.08
2023-03-06T16:54:35.166Z,12.05
2023-03-06T16:57:37.062Z,15.70
2023-03-06T17:00:41.296Z,14.38
2023-03-06T17:03:43.416Z,15.90
2023-03-06T17:06:47.680Z,15.98
2023-03-06T17:09:50.583Z,12.95
2023-03-06T17:12:52.461Z,16.45
2023-03-06T17:15:59.527Z,13.13
2023-03-06T17:19:02.513Z,17.50
2023-03-06T17:22:04.456Z,17.73
2023-03-06T17:25:09.298Z,18.50
2023-03-06T17:28:11.455Z,21.75
2023-03-06T17:31:18.868Z,21.83
2023-03-06T17:34:22.077Z,20.98
2023-03-06T17:37:25.567Z,22.58
2023-03-06T17:40:30.577Z,24.08
2023-03-06T17:43:32.625Z,27.67
2023-03-06T17:46:36.906Z,25.53
2023-03-06T17:49:38.805Z,30.73
2023-03-06T17:52:43.575Z,36.05
2023-03-06T17:55:45.562Z,31.70
2023-03-06T17:58:49.934Z,32.00
2023-03-06T18:01:51.825Z,34.17
2023-03-06T18:04:58.744Z,34.28
2023-03-06T18:08:00.687Z,30.10
2023-03-06T18:11:04.431Z,38.03
2023-03-06T18:14:06.323Z,35.13
2023-03-06T18:17:08.258Z,33.50
2023-03-06T18:20:12.887Z,32.10
2023-03-06T18:23:14.815Z,30.38
2023-03-06T18:26:24.158Z,29.65
2023-03-06T18:29:28.285Z,39.38
2023-03-06T18:32:30.236Z,56.65
2023-03-06T18:35:36.018Z,58.65
2023-03-06T18:38:45.728Z,64.82
2023-03-06T18:41:47.860Z,62.60
2023-03-06T18:44:49.764Z,54.63
2023-03-06T18:47:51.741Z,45.15
2023-03-06T18:50:53.725Z,37.15
2023-03-06T18:54:00.371Z,29.55
2023-03-06T18:57:05.124Z,28.30
2023-03-06T19:00:08.273Z,31.60
2023-03-06T19:03:13.563Z,28.20
2023-03-06T19:06:21.349Z,31.23
2023-03-06T19:09:23.239Z,27.83
2023-03-06T19:12:25.065Z,26.88
2023-03-06T19:15:26.916Z,25.83
2023-03-06T19:18:31.857Z,25.20
2023-03-06T19:21:33.787Z,28.88
2023-03-06T19:24:35.696Z,21.25
2023-03-06T19:27:39.988Z,23.15
2023-03-06T19:30:41.897Z,25.83
2023-03-06T19:33:44.096Z,26.70
2023-03-06T19:36:45.877Z,29.73
2023-03-06T19:39:47.720Z,29.40
2023-03-06T19:42:50.334Z,32.83
2023-03-06T19:45:52.277Z,25.92
2023-03-06T19:48:59.161Z,27.35
2023-03-06T19:52:01.558Z,27.73
2023-03-06T19:55:03.692Z,27.15
2023-03-06T19:58:05.999Z,23.23
2023-03-06T20:01:11.230Z,63.58
2023-03-06T20:04:13.144Z,57.20
2023-03-06T20:07:15.043Z,80.30
2023-03-06T20:10:17.413Z,45.20
2023-03-06T20:13:19.268Z,23.42
2023-03-06T20:16:21.151Z,26.10
2023-03-06T20:19:22.999Z,25.17
2023-03-06T20:22:25.226Z,23.23
2023-03-06T20:25:27.101Z,26.73
2023-03-06T20:28:28.987Z,24.45
2023-03-06T20:31:31.220Z,29.58
2023-03-06T20:34:33.215Z,30.58
2023-03-06T20:37:35.155Z,48.95
2023-03-06T20:40:42.432Z,38.92
2023-03-06T20:43:44.584Z,53.00
2023-03-06T20:46:49.939Z,50.53
2023-03-06T20:49:51.838Z,73.25
2023-03-06T20:52:58.484Z,140.55
2023-03-06T20:56:00.314Z,346.73
2023-03-06T20:59:03.232Z,221.02
2023-03-06T21:02:09.732Z,116.78
2023-03-06T21:05:11.716Z,161.35
2023-03-06T21:08:14.583Z,111.30
2023-03-06T21:11:18.459Z,53.03
2023-03-06T21:14:20.348Z,44.58
2023-03-06T21:17:22.158Z,43.13
2023-03-06T21:20:24.438Z,41.00
2023-03-06T21:23:26.351Z,50.70
2023-03-06T21:26:30.144Z,39.38
2023-03-06T21:29:32.112Z,39.13
2023-03-06T21:32:36.674Z,42.25
2023-03-06T21:35:40.313Z,46.40
2023-03-06T21:38:44.809Z,52.58
2023-03-06T21:41:46.706Z,56.95
2023-03-06T21:44:51.003Z,52.05
2023-03-06T21:47:55.705Z,35.45
2023-03-06T21:51:05.020Z,30.30
2023-03-06T21:54:07.247Z,39.75
2023-03-06T21:57:09.088Z,50.03
2023-03-06T22:00:12.939Z,40.17
2023-03-06T22:03:14.851Z,46.00
2023-03-06T22:06:31.414Z,35.33
2023-03-06T22:09:36.076Z,27.73
2023-03-06T22:12:43.537Z,28.50
2023-03-06T22:15:55.203Z,50.75
2023-03-06T22:18:57.154Z,74.75
2023-03-06T22:21:59.020Z,23.50
2023-03-06T22:25:00.870Z,38.90
2023-03-06T22:28:05.311Z,36.58
2023-03-06T22:31:15.641Z,102.75
2023-03-06T22:34:17.865Z,175.07
2023-03-06T22:37:21.988Z,56.13
2023-03-06T22:40:24.213Z,36.00
2023-03-06T22:43:27.578Z,33.50
2023-03-06T22:46:30.463Z,20.60
2023-03-06T22:49:32.770Z,19.98
2023-03-06T22:52:37.055Z,16.95
2023-03-06T22:55:38.871Z,20.05
2023-03-06T22:58:40.913Z,34.33
2023-03-06T23:01:43.955Z,26.43
2023-03-06T23:07:51.301Z,24.38
2023-03-06T23:10:53.245Z,33.45
2023-03-06T23:14:16.615Z,43.58
2023-03-06T23:21:01.905Z,47.55
2023-03-06T23:24:22.599Z,34.67
2023-03-06T23:27:24.462Z,29.40
2023-03-06T23:30:26.679Z,30.17
2023-03-06T23:33:28.629Z,44.70
2023-03-06T23:36:31.259Z,42.72
2023-03-06T23:39:33.743Z,27.75
2023-03-06T23:42:35.783Z,22.92
2023-03-06T23:45:37.671Z,22.60
2023-03-06T23:48:40.893Z,24.13
2023-03-06T23:51:42.794Z,23.77
2023-03-06T23:54:44.622Z,25.55
2023-03-06T23:57:46.621Z,24.20
